sensor_id;sensor_type;location;lat;lon;timestamp;P1;durP1;ratioP1;P2;durP2;ratioP2
2320;SDS011;15376;48.540;9.268;2023-04-24T00:00:36;3.10;;;1.53;;
2320;SDS011;15376;48.540;9.268;2023-04-24T00:03:03;1.63;;;1.10;;
2320;SDS011;15376;48.540;9.268;2023-04-24T00:05:28;3.17;;;1.67;;
2320;SDS011;15376;48.540;9.268;2023-04-24T00:07:54;3.53;;;1.00;;
2320;SDS011;15376;48.540;9.268;2023-04-24T00:10:20;1.80;;;1.03;;
2320;SDS011;15376;48.540;9.268;2023-04-24T00:12:45;4.03;;;1.27;;
2320;SDS011;15376;48.540;9.268;2023-04-24T00:15:11;1.30;;;1.20;;
2320;SDS011;15376;48.540;9.268;2023-04-24T00:17:36;4.40;;;1.20;;
2320;SDS011;15376;48.540;9.268;2023-04-24T00:20:02;1.80;;;1.20;;
2320;SDS011;15376;48.540;9.268;2023-04-24T00:22:29;3.43;;;1.10;;
2320;SDS011;15376;48.540;9.268;2023-04-24T00:24:56;1.40;;;1.23;;
2320;SDS011;15376;48.540;9.268;2023-04-24T00:27:22;1.97;;;1.10;;
2320;SDS011;15376;48.540;9.268;2023-04-24T00:29:47;1.80;;;1.27;;
2320;SDS011;15376;48.540;9.268;2023-04-24T00:32:13;2.30;;;1.30;;
2320;SDS011;15376;48.540;9.268;2023-04-24T00:34:39;1.80;;;1.70;;
2320;SDS011;15376;48.540;9.268;2023-04-24T00:37:04;1.43;;;1.17;;
2320;SDS011;15376;48.540;9.268;2023-04-24T00:39:30;2.23;;;1.30;;
2320;SDS011;15376;48.540;9.268;2023-04-24T00:41:55;4.20;;;1.53;;
2320;SDS011;15376;48.540;9.268;2023-04-24T00:44:23;2.40;;;1.37;;
2320;SDS011;15376;48.540;9.268;2023-04-24T00:46:49;3.03;;;1.37;;
2320;SDS011;15376;48.540;9.268;2023-04-24T00:49:20;1.30;;;1.10;;
2320;SDS011;15376;48.540;9.268;2023-04-24T00:51:46;2.20;;;1.40;;
2320;SDS011;15376;48.540;9.268;2023-04-24T00:54:14;1.30;;;1.20;;
2320;SDS011;15376;48.540;9.268;2023-04-24T00:56:41;1.50;;;1.30;;
2320;SDS011;15376;48.540;9.268;2023-04-24T00:59:07;1.50;;;1.40;;
2320;SDS011;15376;48.540;9.268;2023-04-24T01:01:33;2.37;;;1.40;;
2320;SDS011;15376;48.540;9.268;2023-04-24T01:03:59;1.73;;;1.30;;
2320;SDS011;15376;48.540;9.268;2023-04-24T01:06:27;1.70;;;1.60;;
2320;SDS011;15376;48.540;9.268;2023-04-24T01:08:54;1.33;;;1.23;;
2320;SDS011;15376;48.540;9.268;2023-04-24T01:11:20;2.67;;;1.30;;
2320;SDS011;15376;48.540;9.268;2023-04-24T01:13:47;1.73;;;1.63;;
2320;SDS011;15376;48.540;9.268;2023-04-24T01:16:13;1.50;;;1.40;;
2320;SDS011;15376;48.540;9.268;2023-04-24T01:18:40;4.80;;;1.40;;
2320;SDS011;15376;48.540;9.268;2023-04-24T01:21:06;1.40;;;1.30;;
2320;SDS011;15376;48.540;9.268;2023-04-24T01:23:33;2.50;;;1.20;;
2320;SDS011;15376;48.540;9.268;2023-04-24T01:25:59;2.20;;;1.37;;
2320;SDS011;15376;48.540;9.268;2023-04-24T01:28:24;1.63;;;1.27;;
2320;SDS011;15376;48.540;9.268;2023-04-24T01:30:50;2.20;;;1.50;;
2320;SDS011;15376;48.540;9.268;2023-04-24T01:33:15;2.67;;;1.50;;
2320;SDS011;15376;48.540;9.268;2023-04-24T01:35:41;2.13;;;1.50;;
2320;SDS011;15376;48.540;9.268;2023-04-24T01:38:07;1.33;;;1.23;;
2320;SDS011;15376;48.540;9.268;2023-04-24T01:40:32;2.60;;;1.57;;
2320;SDS011;15376;48.540;9.268;2023-04-24T01:42:58;1.80;;;1.33;;
2320;SDS011;15376;48.540;9.268;2023-04-24T01:45:24;1.60;;;1.50;;
2320;SDS011;15376;48.540;9.268;2023-04-24T01:47:49;1.30;;;1.20;;
2320;SDS011;15376;48.540;9.268;2023-04-24T01:50:15;1.37;;;1.27;;
2320;SDS011;15376;48.540;9.268;2023-04-24T01:52:41;1.37;;;1.27;;
2320;SDS011;15376;48.540;9.268;2023-04-24T01:55:06;1.47;;;1.33;;
2320;SDS011;15376;48.540;9.268;2023-04-24T01:57:32;1.50;;;1.40;;
2320;SDS011;15376;48.540;9.268;2023-04-24T01:59:58;1.90;;;1.53;;
2320;SDS011;15376;48.540;9.268;2023-04-24T02:02:24;1.60;;;1.40;;
2320;SDS011;15376;48.540;9.268;2023-04-24T02:04:52;3.30;;;1.60;;
2320;SDS011;15376;48.540;9.268;2023-04-24T02:07:18;1.80;;;1.60;;
2320;SDS011;15376;48.540;9.268;2023-04-24T02:09:43;3.13;;;1.63;;
2320;SDS011;15376;48.540;9.268;2023-04-24T02:12:08;2.67;;;1.90;;
2320;SDS011;15376;48.540;9.268;2023-04-24T02:14:34;1.50;;;1.40;;
2320;SDS011;15376;48.540;9.268;2023-04-24T02:16:59;1.80;;;1.70;;
2320;SDS011;15376;48.540;9.268;2023-04-24T02:19:28;3.23;;;1.93;;
2320;SDS011;15376;48.540;9.268;2023-04-24T02:21:54;3.27;;;1.60;;
2320;SDS011;15376;48.540;9.268;2023-04-24T02:24:19;1.83;;;1.70;;
2320;SDS011;15376;48.540;9.268;2023-04-24T02:26:44;5.53;;;1.70;;
2320;SDS011;15376;48.540;9.268;2023-04-24T02:29:10;2.37;;;1.70;;
2320;SDS011;15376;48.540;9.268;2023-04-24T02:31:35;9.93;;;2.23;;
2320;SDS011;15376;48.540;9.268;2023-04-24T02:34:00;5.87;;;2.63;;
2320;SDS011;15376;48.540;9.268;2023-04-24T02:36:26;3.97;;;1.77;;
2320;SDS011;15376;48.540;9.268;2023-04-24T02:38:51;2.23;;;1.80;;
2320;SDS011;15376;48.540;9.268;2023-04-24T02:41:17;1.80;;;1.70;;
2320;SDS011;15376;48.540;9.268;2023-04-24T02:43:42;1.77;;;1.67;;
2320;SDS011;15376;48.540;9.268;2023-04-24T02:46:07;2.77;;;1.90;;
2320;SDS011;15376;48.540;9.268;2023-04-24T02:48:33;2.80;;;1.73;;
2320;SDS011;15376;48.540;9.268;2023-04-24T02:50:58;1.83;;;1.50;;
2320;SDS011;15376;48.540;9.268;2023-04-24T02:53:23;1.93;;;1.83;;
2320;SDS011;15376;48.540;9.268;2023-04-24T02:55:49;2.17;;;1.50;;
2320;SDS011;15376;48.540;9.268;2023-04-24T02:58:14;3.47;;;1.53;;
2320;SDS011;15376;48.540;9.268;2023-04-24T03:00:39;2.00;;;1.80;;
2320;SDS011;15376;48.540;9.268;2023-04-24T03:03:05;6.00;;;2.57;;
2320;SDS011;15376;48.540;9.268;2023-04-24T03:05:30;3.60;;;2.03;;
2320;SDS011;15376;48.540;9.268;2023-04-24T03:07:56;4.60;;;2.03;;
2320;SDS011;15376;48.540;9.268;2023-04-24T03:10:21;3.53;;;2.20;;
2320;SDS011;15376;48.540;9.268;2023-04-24T03:12:49;4.07;;;2.00;;
2320;SDS011;15376;48.540;9.268;2023-04-24T03:15:15;5.50;;;2.43;;
2320;SDS011;15376;48.540;9.268;2023-04-24T03:17:40;3.77;;;2.30;;
2320;SDS011;15376;48.540;9.268;2023-04-24T03:20:06;7.60;;;2.50;;
2320;SDS011;15376;48.540;9.268;2023-04-24T03:22:33;3.97;;;3.10;;
2320;SDS011;15376;48.540;9.268;2023-04-24T03:24:59;3.27;;;1.83;;
2320;SDS011;15376;48.540;9.268;2023-04-24T03:27:24;4.17;;;2.00;;
2320;SDS011;15376;48.540;9.268;2023-04-24T03:29:50;5.20;;;1.90;;
2320;SDS011;15376;48.540;9.268;2023-04-24T03:32:20;2.70;;;1.80;;
2320;SDS011;15376;48.540;9.268;2023-04-24T03:34:47;3.30;;;2.50;;
2320;SDS011;15376;48.540;9.268;2023-04-24T03:37:12;4.03;;;2.03;;
2320;SDS011;15376;48.540;9.268;2023-04-24T03:39:38;3.57;;;2.43;;
2320;SDS011;15376;48.540;9.268;2023-04-24T03:42:03;3.77;;;2.17;;
2320;SDS011;15376;48.540;9.268;2023-04-24T03:44:28;2.13;;;2.00;;
2320;SDS011;15376;48.540;9.268;2023-04-24T03:46:54;2.43;;;1.97;;
2320;SDS011;15376;48.540;9.268;2023-04-24T03:49:19;3.83;;;2.60;;
2320;SDS011;15376;48.540;9.268;2023-04-24T03:51:45;3.00;;;2.50;;
2320;SDS011;15376;48.540;9.268;2023-04-24T03:54:10;5.43;;;2.50;;
2320;SDS011;15376;48.540;9.268;2023-04-24T03:56:36;2.70;;;1.90;;
2320;SDS011;15376;48.540;9.268;2023-04-24T03:59:01;2.27;;;1.67;;
2320;SDS011;15376;48.540;9.268;2023-04-24T04:01:27;3.77;;;1.80;;
2320;SDS011;15376;48.540;9.268;2023-04-24T04:03:53;4.20;;;1.97;;
2320;SDS011;15376;48.540;9.268;2023-04-24T04:06:18;2.43;;;1.80;;
2320;SDS011;15376;48.540;9.268;2023-04-24T04:08:44;3.10;;;2.20;;
2320;SDS011;15376;48.540;9.268;2023-04-24T04:11:09;2.10;;;1.90;;
2320;SDS011;15376;48.540;9.268;2023-04-24T04:13:35;9.97;;;3.10;;
2320;SDS011;15376;48.540;9.268;2023-04-24T04:16:00;6.43;;;2.80;;
2320;SDS011;15376;48.540;9.268;2023-04-24T04:18:25;6.13;;;3.00;;
2320;SDS011;15376;48.540;9.268;2023-04-24T04:20:51;8.80;;;2.60;;
2320;SDS011;15376;48.540;9.268;2023-04-24T04:23:16;4.97;;;2.70;;
2320;SDS011;15376;48.540;9.268;2023-04-24T04:25:42;5.63;;;2.57;;
2320;SDS011;15376;48.540;9.268;2023-04-24T04:28:07;8.87;;;2.47;;
2320;SDS011;15376;48.540;9.268;2023-04-24T04:30:32;6.97;;;2.10;;
2320;SDS011;15376;48.540;9.268;2023-04-24T04:32:58;2.33;;;1.90;;
2320;SDS011;15376;48.540;9.268;2023-04-24T04:35:24;2.67;;;2.03;;
2320;SDS011;15376;48.540;9.268;2023-04-24T04:37:50;3.33;;;1.87;;
2320;SDS011;15376;48.540;9.268;2023-04-24T04:40:16;2.90;;;1.90;;
2320;SDS011;15376;48.540;9.268;2023-04-24T04:42:42;2.60;;;2.17;;
2320;SDS011;15376;48.540;9.268;2023-04-24T04:45:10;6.53;;;3.17;;
2320;SDS011;15376;48.540;9.268;2023-04-24T04:47:36;3.63;;;2.80;;
2320;SDS011;15376;48.540;9.268;2023-04-24T04:50:02;8.70;;;3.00;;
2320;SDS011;15376;48.540;9.268;2023-04-24T04:52:29;5.00;;;3.50;;
2320;SDS011;15376;48.540;9.268;2023-04-24T04:54:54;4.00;;;2.40;;
2320;SDS011;15376;48.540;9.268;2023-04-24T04:57:20;2.53;;;2.30;;
2320;SDS011;15376;48.540;9.268;2023-04-24T04:59:46;4.20;;;2.50;;
2320;SDS011;15376;48.540;9.268;2023-04-24T05:02:11;2.07;;;1.90;;
2320;SDS011;15376;48.540;9.268;2023-04-24T05:04:37;3.70;;;2.10;;
2320;SDS011;15376;48.540;9.268;2023-04-24T05:07:02;2.23;;;2.03;;
2320;SDS011;15376;48.540;9.268;2023-04-24T05:09:28;2.77;;;2.10;;
2320;SDS011;15376;48.540;9.268;2023-04-24T05:11:54;1.77;;;1.67;;
2320;SDS011;15376;48.540;9.268;2023-04-24T05:14:20;3.30;;;1.90;;
2320;SDS011;15376;48.540;9.268;2023-04-24T05:16:45;4.13;;;1.60;;
2320;SDS011;15376;48.540;9.268;2023-04-24T05:19:11;1.90;;;1.80;;
2320;SDS011;15376;48.540;9.268;2023-04-24T05:21:38;1.93;;;1.83;;
2320;SDS011;15376;48.540;9.268;2023-04-24T05:24:04;6.00;;;2.50;;
2320;SDS011;15376;48.540;9.268;2023-04-24T05:26:30;3.07;;;2.77;;
2320;SDS011;15376;48.540;9.268;2023-04-24T05:28:55;5.27;;;2.03;;
2320;SDS011;15376;48.540;9.268;2023-04-24T05:31:21;2.30;;;2.10;;
2320;SDS011;15376;48.540;9.268;2023-04-24T05:33:46;2.30;;;2.10;;
2320;SDS011;15376;48.540;9.268;2023-04-24T05:36:11;3.13;;;2.93;;
2320;SDS011;15376;48.540;9.268;2023-04-24T05:38:37;3.23;;;2.90;;
2320;SDS011;15376;48.540;9.268;2023-04-24T05:41:03;5.00;;;3.53;;
2320;SDS011;15376;48.540;9.268;2023-04-24T05:43:28;3.30;;;2.90;;
2320;SDS011;15376;48.540;9.268;2023-04-24T05:45:53;3.73;;;3.00;;
2320;SDS011;15376;48.540;9.268;2023-04-24T05:48:19;3.63;;;2.53;;
2320;SDS011;15376;48.540;9.268;2023-04-24T05:50:47;2.60;;;2.40;;
2320;SDS011;15376;48.540;9.268;2023-04-24T05:53:13;3.40;;;2.70;;
2320;SDS011;15376;48.540;9.268;2023-04-24T05:55:38;3.13;;;2.93;;
2320;SDS011;15376;48.540;9.268;2023-04-24T05:58:04;3.40;;;3.00;;
2320;SDS011;15376;48.540;9.268;2023-04-24T06:00:29;5.23;;;4.70;;
2320;SDS011;15376;48.540;9.268;2023-04-24T06:02:55;5.10;;;2.50;;
2320;SDS011;15376;48.540;9.268;2023-04-24T06:05:20;3.50;;;2.73;;
2320;SDS011;15376;48.540;9.268;2023-04-24T06:07:45;3.53;;;3.23;;
2320;SDS011;15376;48.540;9.268;2023-04-24T06:10:11;3.50;;;3.20;;
2320;SDS011;15376;48.540;9.268;2023-04-24T06:12:36;3.10;;;2.90;;
2320;SDS011;15376;48.540;9.268;2023-04-24T06:15:02;3.83;;;2.97;;
2320;SDS011;15376;48.540;9.268;2023-04-24T06:17:28;3.20;;;2.90;;
2320;SDS011;15376;48.540;9.268;2023-04-24T06:19:53;3.67;;;3.37;;
2320;SDS011;15376;48.540;9.268;2023-04-24T06:22:19;7.47;;;3.30;;
2320;SDS011;15376;48.540;9.268;2023-04-24T06:24:44;4.03;;;2.93;;
2320;SDS011;15376;48.540;9.268;2023-04-24T06:27:10;3.83;;;3.50;;
2320;SDS011;15376;48.540;9.268;2023-04-24T06:29:35;3.37;;;3.17;;
2320;SDS011;15376;48.540;9.268;2023-04-24T06:32:01;3.40;;;3.20;;
2320;SDS011;15376;48.540;9.268;2023-04-24T06:34:26;4.70;;;4.10;;
2320;SDS011;15376;48.540;9.268;2023-04-24T06:36:52;3.70;;;2.90;;
2320;SDS011;15376;48.540;9.268;2023-04-24T06:39:17;3.23;;;2.90;;
2320;SDS011;15376;48.540;9.268;2023-04-24T06:41:42;4.23;;;2.83;;
2320;SDS011;15376;48.540;9.268;2023-04-24T06:44:08;3.83;;;3.43;;
2320;SDS011;15376;48.540;9.268;2023-04-24T06:46:33;3.63;;;2.77;;
2320;SDS011;15376;48.540;9.268;2023-04-24T06:48:59;3.03;;;2.83;;
2320;SDS011;15376;48.540;9.268;2023-04-24T06:51:27;2.70;;;2.50;;
2320;SDS011;15376;48.540;9.268;2023-04-24T06:53:54;2.67;;;2.47;;
2320;SDS011;15376;48.540;9.268;2023-04-24T06:56:21;3.10;;;2.80;;
2320;SDS011;15376;48.540;9.268;2023-04-24T06:58:46;2.80;;;2.60;;
2320;SDS011;15376;48.540;9.268;2023-04-24T07:01:12;4.03;;;2.03;;
2320;SDS011;15376;48.540;9.268;2023-04-24T07:03:37;3.97;;;2.30;;
2320;SDS011;15376;48.540;9.268;2023-04-24T07:06:03;2.60;;;2.40;;
2320;SDS011;15376;48.540;9.268;2023-04-24T07:08:29;3.80;;;2.07;;
2320;SDS011;15376;48.540;9.268;2023-04-24T07:10:58;2.40;;;2.20;;
2320;SDS011;15376;48.540;9.268;2023-04-24T07:13:23;5.00;;;2.53;;
2320;SDS011;15376;48.540;9.268;2023-04-24T07:15:49;2.53;;;2.33;;
2320;SDS011;15376;48.540;9.268;2023-04-24T07:18:15;3.03;;;2.20;;
2320;SDS011;15376;48.540;9.268;2023-04-24T07:20:41;2.63;;;2.43;;
2320;SDS011;15376;48.540;9.268;2023-04-24T07:23:07;2.70;;;2.50;;
2320;SDS011;15376;48.540;9.268;2023-04-24T07:25:32;2.30;;;2.10;;
2320;SDS011;15376;48.540;9.268;2023-04-24T07:27:58;2.90;;;2.70;;
2320;SDS011;15376;48.540;9.268;2023-04-24T07:30:23;2.53;;;2.10;;
2320;SDS011;15376;48.540;9.268;2023-04-24T07:32:49;2.77;;;2.43;;
2320;SDS011;15376;48.540;9.268;2023-04-24T07:35:15;2.20;;;2.00;;
2320;SDS011;15376;48.540;9.268;2023-04-24T07:37:40;3.87;;;2.30;;
2320;SDS011;15376;48.540;9.268;2023-04-24T07:40:10;2.70;;;2.50;;
2320;SDS011;15376;48.540;9.268;2023-04-24T07:42:38;3.13;;;2.40;;
2320;SDS011;15376;48.540;9.268;2023-04-24T07:45:04;2.90;;;2.60;;
2320;SDS011;15376;48.540;9.268;2023-04-24T07:47:30;6.03;;;2.17;;
2320;SDS011;15376;48.540;9.268;2023-04-24T07:49:56;1.87;;;1.77;;
2320;SDS011;15376;48.540;9.268;2023-04-24T07:52:22;2.70;;;1.80;;
2320;SDS011;15376;48.540;9.268;2023-04-24T07:54:47;2.13;;;1.97;;
2320;SDS011;15376;48.540;9.268;2023-04-24T07:57:14;3.67;;;1.97;;
2320;SDS011;15376;48.540;9.268;2023-04-24T07:59:40;4.53;;;1.93;;
2320;SDS011;15376;48.540;9.268;2023-04-24T08:02:05;2.00;;;1.80;;
2320;SDS011;15376;48.540;9.268;2023-04-24T08:04:31;1.73;;;1.63;;
2320;SDS011;15376;48.540;9.268;2023-04-24T08:06:56;2.13;;;1.93;;
2320;SDS011;15376;48.540;9.268;2023-04-24T08:09:22;2.50;;;2.10;;
2320;SDS011;15376;48.540;9.268;2023-04-24T08:11:47;1.97;;;1.87;;
2320;SDS011;15376;48.540;9.268;2023-04-24T08:14:12;2.10;;;2.00;;
2320;SDS011;15376;48.540;9.268;2023-04-24T08:16:39;2.13;;;1.97;;
2320;SDS011;15376;48.540;9.268;2023-04-24T08:19:05;2.20;;;2.00;;
2320;SDS011;15376;48.540;9.268;2023-04-24T08:21:30;2.17;;;1.97;;
2320;SDS011;15376;48.540;9.268;2023-04-24T08:23:56;5.47;;;2.17;;
2320;SDS011;15376;48.540;9.268;2023-04-24T08:26:22;2.40;;;2.20;;
2320;SDS011;15376;48.540;9.268;2023-04-24T08:28:47;2.50;;;1.77;;
2320;SDS011;15376;48.540;9.268;2023-04-24T08:31:13;8.13;;;2.30;;
2320;SDS011;15376;48.540;9.268;2023-04-24T08:33:38;3.17;;;2.30;;
2320;SDS011;15376;48.540;9.268;2023-04-24T08:36:04;2.00;;;1.80;;
2320;SDS011;15376;48.540;9.268;2023-04-24T08:38:30;2.03;;;1.90;;
2320;SDS011;15376;48.540;9.268;2023-04-24T08:40:59;2.30;;;2.10;;
2320;SDS011;15376;48.540;9.268;2023-04-24T08:43:26;2.60;;;2.40;;
2320;SDS011;15376;48.540;9.268;2023-04-24T08:45:52;2.43;;;2.20;;
2320;SDS011;15376;48.540;9.268;2023-04-24T08:48:20;2.40;;;2.20;;
2320;SDS011;15376;48.540;9.268;2023-04-24T08:50:47;2.40;;;2.20;;
2320;SDS011;15376;48.540;9.268;2023-04-24T08:53:15;1.77;;;1.67;;
2320;SDS011;15376;48.540;9.268;2023-04-24T08:55:40;4.87;;;2.03;;
2320;SDS011;15376;48.540;9.268;2023-04-24T08:58:08;3.47;;;2.20;;
2320;SDS011;15376;48.540;9.268;2023-04-24T09:00:34;2.40;;;2.20;;
2320;SDS011;15376;48.540;9.268;2023-04-24T09:03:00;2.43;;;1.80;;
2320;SDS011;15376;48.540;9.268;2023-04-24T09:05:25;2.00;;;1.90;;
2320;SDS011;15376;48.540;9.268;2023-04-24T09:07:55;2.90;;;2.30;;
2320;SDS011;15376;48.540;9.268;2023-04-24T09:10:22;2.30;;;2.10;;
2320;SDS011;15376;48.540;9.268;2023-04-24T09:12:50;3.50;;;2.47;;
2320;SDS011;15376;48.540;9.268;2023-04-24T09:15:16;2.37;;;1.97;;
2320;SDS011;15376;48.540;9.268;2023-04-24T09:17:42;3.20;;;2.00;;
2320;SDS011;15376;48.540;9.268;2023-04-24T09:20:11;4.97;;;2.63;;
2320;SDS011;15376;48.540;9.268;2023-04-24T09:22:39;1.80;;;1.70;;
2320;SDS011;15376;48.540;9.268;2023-04-24T09:25:06;2.40;;;2.20;;
2320;SDS011;15376;48.540;9.268;2023-04-24T09:27:33;2.23;;;1.63;;
2320;SDS011;15376;48.540;9.268;2023-04-24T09:29:59;2.47;;;2.27;;
2320;SDS011;15376;48.540;9.268;2023-04-24T09:32:25;2.13;;;1.73;;
2320;SDS011;15376;48.540;9.268;2023-04-24T09:37:50;2.03;;;1.83;;
2320;SDS011;15376;48.540;9.268;2023-04-24T09:40:19;4.13;;;2.50;;
2320;SDS011;15376;48.540;9.268;2023-04-24T09:42:46;5.23;;;2.17;;
2320;SDS011;15376;48.540;9.268;2023-04-24T09:45:17;2.63;;;2.43;;
2320;SDS011;15376;48.540;9.268;2023-04-24T09:47:42;2.53;;;2.03;;
2320;SDS011;15376;48.540;9.268;2023-04-24T09:50:11;3.30;;;2.03;;
2320;SDS011;15376;48.540;9.268;2023-04-24T09:52:45;1.70;;;1.60;;
2320;SDS011;15376;48.540;9.268;2023-04-24T09:55:13;2.93;;;2.50;;
2320;SDS011;15376;48.540;9.268;2023-04-24T09:57:47;3.10;;;2.57;;
2320;SDS011;15376;48.540;9.268;2023-04-24T10:00:21;1.60;;;1.50;;
2320;SDS011;15376;48.540;9.268;2023-04-24T10:02:49;1.83;;;1.70;;
2320;SDS011;15376;48.540;9.268;2023-04-24T10:05:15;2.40;;;1.83;;
2320;SDS011;15376;48.540;9.268;2023-04-24T10:07:42;2.60;;;2.00;;
2320;SDS011;15376;48.540;9.268;2023-04-24T10:10:08;2.70;;;2.37;;
2320;SDS011;15376;48.540;9.268;2023-04-24T10:12:34;3.97;;;1.77;;
2320;SDS011;15376;48.540;9.268;2023-04-24T10:15:00;2.00;;;1.80;;
2320;SDS011;15376;48.540;9.268;2023-04-24T10:17:30;2.10;;;1.90;;
2320;SDS011;15376;48.540;9.268;2023-04-24T10:19:56;2.60;;;1.80;;
2320;SDS011;15376;48.540;9.268;2023-04-24T10:22:23;2.80;;;1.93;;
2320;SDS011;15376;48.540;9.268;2023-04-24T10:24:48;3.20;;;1.90;;
2320;SDS011;15376;48.540;9.268;2023-04-24T10:27:15;2.20;;;2.00;;
2320;SDS011;15376;48.540;9.268;2023-04-24T10:29:41;2.13;;;2.03;;
2320;SDS011;15376;48.540;9.268;2023-04-24T10:32:08;4.13;;;1.90;;
2320;SDS011;15376;48.540;9.268;2023-04-24T10:34:35;2.80;;;2.00;;
2320;SDS011;15376;48.540;9.268;2023-04-24T10:37:00;1.50;;;1.37;;
2320;SDS011;15376;48.540;9.268;2023-04-24T10:39:27;2.70;;;1.83;;
2320;SDS011;15376;48.540;9.268;2023-04-24T10:41:54;2.00;;;1.50;;
2320;SDS011;15376;48.540;9.268;2023-04-24T10:44:22;2.03;;;1.70;;
2320;SDS011;15376;48.540;9.268;2023-04-24T10:46:49;6.20;;;2.00;;
2320;SDS011;15376;48.540;9.268;2023-04-24T10:49:19;3.70;;;1.77;;
2320;SDS011;15376;48.540;9.268;2023-04-24T10:51:53;1.43;;;1.33;;
2320;SDS011;15376;48.540;9.268;2023-04-24T10:54:26;2.00;;;1.80;;
2320;SDS011;15376;48.540;9.268;2023-04-24T10:56:55;2.17;;;1.97;;
2320;SDS011;15376;48.540;9.268;2023-04-24T10:59:45;2.00;;;1.80;;
2320;SDS011;15376;48.540;9.268;2023-04-24T11:02:15;2.23;;;1.20;;
2320;SDS011;15376;48.540;9.268;2023-04-24T11:04:41;1.70;;;1.60;;
2320;SDS011;15376;48.540;9.268;2023-04-24T11:07:12;2.47;;;1.80;;
2320;SDS011;15376;48.540;9.268;2023-04-24T11:09:38;3.57;;;1.60;;
2320;SDS011;15376;48.540;9.268;2023-04-24T11:12:11;1.97;;;1.87;;
2320;SDS011;15376;48.540;9.268;2023-04-24T11:20:02;3.20;;;1.80;;
2320;SDS011;15376;48.540;9.268;2023-04-24T11:22:32;2.43;;;1.90;;
2320;SDS011;15376;48.540;9.268;2023-04-24T11:25:00;2.33;;;1.70;;
2320;SDS011;15376;48.540;9.268;2023-04-24T11:27:31;2.73;;;1.67;;
2320;SDS011;15376;48.540;9.268;2023-04-24T11:30:03;2.60;;;2.13;;
2320;SDS011;15376;48.540;9.268;2023-04-24T11:34:59;3.30;;;1.70;;
2320;SDS011;15376;48.540;9.268;2023-04-24T11:37:44;2.83;;;1.83;;
2320;SDS011;15376;48.540;9.268;2023-04-24T11:40:12;1.93;;;1.60;;
2320;SDS011;15376;48.540;9.268;2023-04-24T11:42:43;2.17;;;1.67;;
2320;SDS011;15376;48.540;9.268;2023-04-24T11:47:36;1.60;;;1.50;;
2320;SDS011;15376;48.540;9.268;2023-04-24T11:50:02;2.33;;;1.60;;
2320;SDS011;15376;48.540;9.268;2023-04-24T11:52:29;2.13;;;1.50;;
2320;SDS011;15376;48.540;9.268;2023-04-24T11:54:55;3.60;;;1.87;;
2320;SDS011;15376;48.540;9.268;2023-04-24T11:57:21;1.40;;;1.30;;
2320;SDS011;15376;48.540;9.268;2023-04-24T11:59:48;2.30;;;1.43;;
2320;SDS011;15376;48.540;9.268;2023-04-24T12:02:21;1.70;;;1.60;;
2320;SDS011;15376;48.540;9.268;2023-04-24T12:04:47;2.43;;;1.70;;
2320;SDS011;15376;48.540;9.268;2023-04-24T12:07:13;1.60;;;1.50;;
2320;SDS011;15376;48.540;9.268;2023-04-24T12:09:42;2.23;;;1.40;;
2320;SDS011;15376;48.540;9.268;2023-04-24T12:12:11;2.90;;;1.30;;
2320;SDS011;15376;48.540;9.268;2023-04-24T12:14:54;1.50;;;1.40;;
2320;SDS011;15376;48.540;9.268;2023-04-24T12:17:31;2.00;;;1.40;;
2320;SDS011;15376;48.540;9.268;2023-04-24T12:19:58;2.10;;;1.77;;
2320;SDS011;15376;48.540;9.268;2023-04-24T12:22:25;1.60;;;1.43;;
2320;SDS011;15376;48.540;9.268;2023-04-24T12:25:01;1.90;;;1.43;;
2320;SDS011;15376;48.540;9.268;2023-04-24T12:27:32;3.93;;;1.60;;
2320;SDS011;15376;48.540;9.268;2023-04-24T12:29:59;2.50;;;1.77;;
2320;SDS011;15376;48.540;9.268;2023-04-24T12:32:25;2.13;;;1.93;;
2320;SDS011;15376;48.540;9.268;2023-04-24T12:34:54;1.50;;;1.40;;
2320;SDS011;15376;48.540;9.268;2023-04-24T12:37:20;2.17;;;1.40;;
2320;SDS011;15376;48.540;9.268;2023-04-24T12:40:04;1.30;;;1.20;;
2320;SDS011;15376;48.540;9.268;2023-04-24T12:42:33;1.70;;;1.60;;
2320;SDS011;15376;48.540;9.268;2023-04-24T12:45:04;2.33;;;1.57;;
2320;SDS011;15376;48.540;9.268;2023-04-24T12:47:31;1.70;;;1.40;;
2320;SDS011;15376;48.540;9.268;2023-04-24T12:49:57;2.23;;;1.40;;
2320;SDS011;15376;48.540;9.268;2023-04-24T12:52:23;2.23;;;1.57;;
2320;SDS011;15376;48.540;9.268;2023-04-24T12:54:52;1.50;;;1.40;;
2320;SDS011;15376;48.540;9.268;2023-04-24T12:57:19;2.03;;;1.47;;
2320;SDS011;15376;48.540;9.268;2023-04-24T12:59:45;3.17;;;1.53;;
2320;SDS011;15376;48.540;9.268;2023-04-24T13:02:10;1.90;;;1.80;;
2320;SDS011;15376;48.540;9.268;2023-04-24T13:04:36;3.40;;;2.27;;
2320;SDS011;15376;48.540;9.268;2023-04-24T13:07:02;2.03;;;1.93;;
2320;SDS011;15376;48.540;9.268;2023-04-24T13:09:27;1.93;;;1.80;;
2320;SDS011;15376;48.540;9.268;2023-04-24T13:11:53;4.50;;;1.93;;
2320;SDS011;15376;48.540;9.268;2023-04-24T13:14:19;1.90;;;1.70;;
2320;SDS011;15376;48.540;9.268;2023-04-24T13:16:45;2.03;;;1.83;;
2320;SDS011;15376;48.540;9.268;2023-04-24T13:19:10;2.03;;;1.60;;
2320;SDS011;15376;48.540;9.268;2023-04-24T13:21:35;2.10;;;1.90;;
2320;SDS011;15376;48.540;9.268;2023-04-24T13:24:01;2.13;;;1.70;;
2320;SDS011;15376;48.540;9.268;2023-04-24T13:26:26;2.30;;;1.60;;
2320;SDS011;15376;48.540;9.268;2023-04-24T13:28:52;2.40;;;2.07;;
2320;SDS011;15376;48.540;9.268;2023-04-24T13:31:17;1.93;;;1.73;;
2320;SDS011;15376;48.540;9.268;2023-04-24T13:33:42;3.50;;;2.13;;
2320;SDS011;15376;48.540;9.268;2023-04-24T13:36:08;2.43;;;2.07;;
2320;SDS011;15376;48.540;9.268;2023-04-24T13:38:33;4.00;;;2.30;;
2320;SDS011;15376;48.540;9.268;2023-04-24T13:40:59;1.60;;;1.33;;
2320;SDS011;15376;48.540;9.268;2023-04-24T13:43:24;2.67;;;2.10;;
2320;SDS011;15376;48.540;9.268;2023-04-24T13:45:49;2.20;;;2.00;;
2320;SDS011;15376;48.540;9.268;2023-04-24T13:48:15;4.23;;;2.43;;
2320;SDS011;15376;48.540;9.268;2023-04-24T13:50:41;2.37;;;2.17;;
2320;SDS011;15376;48.540;9.268;2023-04-24T13:53:07;2.43;;;2.10;;
2320;SDS011;15376;48.540;9.268;2023-04-24T13:55:33;1.87;;;1.70;;
2320;SDS011;15376;48.540;9.268;2023-04-24T13:57:58;2.27;;;2.07;;
2320;SDS011;15376;48.540;9.268;2023-04-24T14:00:23;2.70;;;1.60;;
2320;SDS011;15376;48.540;9.268;2023-04-24T14:02:49;2.47;;;1.80;;
2320;SDS011;15376;48.540;9.268;2023-04-24T14:05:15;1.90;;;1.80;;
2320;SDS011;15376;48.540;9.268;2023-04-24T14:07:40;2.03;;;1.83;;
2320;SDS011;15376;48.540;9.268;2023-04-24T14:10:06;2.50;;;2.30;;
2320;SDS011;15376;48.540;9.268;2023-04-24T14:12:33;4.83;;;1.93;;
2320;SDS011;15376;48.540;9.268;2023-04-24T14:14:58;2.67;;;1.90;;
2320;SDS011;15376;48.540;9.268;2023-04-24T14:17:24;2.33;;;2.20;;
2320;SDS011;15376;48.540;9.268;2023-04-24T14:19:49;3.27;;;2.03;;
2320;SDS011;15376;48.540;9.268;2023-04-24T14:22:16;1.80;;;1.70;;
2320;SDS011;15376;48.540;9.268;2023-04-24T14:24:42;2.30;;;1.90;;
2320;SDS011;15376;48.540;9.268;2023-04-24T14:27:10;2.07;;;1.97;;
2320;SDS011;15376;48.540;9.268;2023-04-24T14:29:35;4.43;;;2.20;;
2320;SDS011;15376;48.540;9.268;2023-04-24T14:32:01;2.03;;;1.93;;
2320;SDS011;15376;48.540;9.268;2023-04-24T14:34:26;2.13;;;1.97;;
2320;SDS011;15376;48.540;9.268;2023-04-24T14:36:52;3.40;;;1.73;;
2320;SDS011;15376;48.540;9.268;2023-04-24T14:39:17;3.13;;;2.30;;
2320;SDS011;15376;48.540;9.268;2023-04-24T14:41:42;4.20;;;2.03;;
2320;SDS011;15376;48.540;9.268;2023-04-24T14:44:08;2.17;;;1.97;;
2320;SDS011;15376;48.540;9.268;2023-04-24T14:46:33;2.27;;;1.90;;
2320;SDS011;15376;48.540;9.268;2023-04-24T14:48:59;2.00;;;1.80;;
2320;SDS011;15376;48.540;9.268;2023-04-24T14:51:24;2.30;;;2.07;;
2320;SDS011;15376;48.540;9.268;2023-04-24T14:53:50;2.17;;;1.97;;
2320;SDS011;15376;48.540;9.268;2023-04-24T14:56:15;2.40;;;2.00;;
2320;SDS011;15376;48.540;9.268;2023-04-24T14:58:41;2.70;;;2.50;;
2320;SDS011;15376;48.540;9.268;2023-04-24T15:01:06;1.80;;;1.70;;
2320;SDS011;15376;48.540;9.268;2023-04-24T15:03:32;2.13;;;2.03;;
2320;SDS011;15376;48.540;9.268;2023-04-24T15:05:57;1.97;;;1.83;;
2320;SDS011;15376;48.540;9.268;2023-04-24T15:08:22;2.40;;;1.83;;